createdAt,value
2019-02-06T00:02:26.410Z,66.70
2019-02-06T00:07:48.835Z,57.47
2019-02-06T00:10:19.144Z,59.40
2019-02-06T00:12:49.225Z,64.00
2019-02-06T00:15:20.231Z,60.10
2019-02-06T00:17:51.236Z,55.30
2019-02-06T00:20:21.220Z,58.70
2019-02-06T00:22:51.446Z,59.47
2019-02-06T00:25:21.424Z,59.57
2019-02-06T00:28:03.646Z,58.43
2019-02-06T00:30:33.730Z,58.97
2019-02-06T00:33:03.664Z,57.87
2019-02-06T00:35:33.712Z,56.70
2019-02-06T00:38:05.490Z,62.03
2019-02-06T00:40:35.144Z,68.20
2019-02-06T00:43:05.351Z,58.00
2019-02-06T00:45:35.454Z,66.40
2019-02-06T00:48:05.532Z,60.63
2019-02-06T00:50:35.517Z,61.13
2019-02-06T00:53:05.453Z,66.70
2019-02-06T00:55:35.396Z,62.27
2019-02-06T00:58:05.285Z,62.93
2019-02-06T01:00:35.384Z,61.20
2019-02-06T01:03:06.299Z,62.90
2019-02-06T01:05:38.402Z,59.43
2019-02-06T01:08:07.807Z,64.67
2019-02-06T01:10:37.991Z,55.97
2019-02-06T01:13:07.883Z,61.63
2019-02-06T01:15:39.213Z,57.17
2019-02-06T01:18:09.096Z,58.23
2019-02-06T01:20:39.176Z,60.93
2019-02-06T01:23:09.064Z,62.27
2019-02-06T01:25:39.021Z,57.93
2019-02-06T01:28:09.017Z,61.50
2019-02-06T01:30:40.989Z,62.30
2019-02-06T01:33:11.004Z,59.63
2019-02-06T01:35:49.539Z,57.27
2019-02-06T01:38:12.546Z,59.67
2019-02-06T01:40:42.579Z,57.50
2019-02-06T01:43:12.489Z,60.57
2019-02-06T01:45:43.077Z,59.20
2019-02-06T01:48:13.111Z,64.13
2019-02-06T01:50:43.128Z,57.33
2019-02-06T01:53:12.999Z,64.60
2019-02-06T01:55:42.982Z,60.30
2019-02-06T01:58:13.089Z,56.57
2019-02-06T02:00:42.986Z,55.73
2019-02-06T02:03:13.107Z,54.47
2019-02-06T02:05:43.006Z,59.73
2019-02-06T02:08:12.968Z,57.40
2019-02-06T02:10:43.064Z,57.77
2019-02-06T02:13:13.048Z,59.27
2019-02-06T02:15:44.143Z,61.97
2019-02-06T02:18:14.135Z,63.67
2019-02-06T02:20:44.215Z,55.43
2019-02-06T02:23:14.195Z,55.37
2019-02-06T02:25:44.245Z,53.90
2019-02-06T02:28:14.645Z,54.63
2019-02-06T02:30:49.288Z,57.00
2019-02-06T02:33:19.287Z,59.87
2019-02-06T02:35:49.295Z,58.07
2019-02-06T02:38:19.282Z,53.63
2019-02-06T02:40:49.183Z,52.57
2019-02-06T02:43:19.319Z,54.30
2019-02-06T02:45:49.419Z,52.43
2019-02-06T02:48:19.430Z,53.60
2019-02-06T02:50:49.355Z,52.80
2019-02-06T02:53:19.328Z,57.33
2019-02-06T02:55:49.639Z,47.40
2019-02-06T02:58:19.636Z,48.23
2019-02-06T03:00:57.076Z,54.53
2019-02-06T03:03:28.683Z,51.47
2019-02-06T03:05:59.665Z,46.37
2019-02-06T03:08:30.052Z,51.87
2019-02-06T03:10:59.952Z,49.87
2019-02-06T03:13:30.009Z,50.50
2019-02-06T03:16:01.808Z,47.23
2019-02-06T03:18:31.800Z,46.83
2019-02-06T03:21:01.717Z,48.20
2019-02-06T03:23:31.701Z,47.73
2019-02-06T03:26:02.638Z,56.10
2019-02-06T03:28:32.661Z,53.83
2019-02-06T03:31:02.661Z,59.63
2019-02-06T03:33:32.672Z,57.73
2019-02-06T03:36:05.161Z,51.87
2019-02-06T03:38:35.182Z,50.67
2019-02-06T03:41:05.211Z,50.93
2019-02-06T03:43:35.239Z,52.40
2019-02-06T03:46:17.426Z,54.27
2019-02-06T03:48:47.751Z,54.30
2019-02-06T03:51:17.641Z,54.07
2019-02-06T03:53:47.639Z,53.30
2019-02-06T03:56:18.571Z,55.33
2019-02-06T03:58:48.593Z,55.97
2019-02-06T04:01:18.445Z,47.70
2019-02-06T04:03:48.491Z,52.20
2019-02-06T04:06:19.444Z,57.87
2019-02-06T04:08:49.455Z,49.80
2019-02-06T04:11:19.352Z,54.57
2019-02-06T04:13:49.418Z,53.97
2019-02-06T04:16:20.416Z,53.17
2019-02-06T04:18:50.395Z,57.13
2019-02-06T04:21:20.291Z,52.93
2019-02-06T04:23:50.289Z,45.37
2019-02-06T04:26:21.306Z,56.80
2019-02-06T04:28:51.263Z,49.17
2019-02-06T04:31:21.576Z,53.67
2019-02-06T04:33:51.549Z,47.90
2019-02-06T04:36:22.599Z,53.03
2019-02-06T04:38:52.582Z,52.80
2019-02-06T04:41:22.512Z,48.47
2019-02-06T04:43:52.571Z,52.00
2019-02-06T04:46:23.576Z,48.73
2019-02-06T04:48:53.591Z,52.67
2019-02-06T04:51:23.574Z,52.23
2019-02-06T04:53:53.604Z,54.47
2019-02-06T04:56:24.763Z,51.30
2019-02-06T04:58:55.178Z,50.60
2019-02-06T05:01:25.159Z,50.77
2019-02-06T05:03:55.195Z,46.40
2019-02-06T05:06:26.338Z,52.67
2019-02-06T05:08:56.374Z,54.73
2019-02-06T05:11:27.365Z,50.80
2019-02-06T05:13:57.830Z,52.13
2019-02-06T05:16:29.824Z,52.00
2019-02-06T05:18:59.828Z,51.53
2019-02-06T05:21:29.740Z,47.50
2019-02-06T05:23:59.842Z,52.23
2019-02-06T05:26:30.906Z,50.17
2019-02-06T05:29:02.001Z,47.03
2019-02-06T05:31:31.919Z,48.67
2019-02-06T05:34:01.908Z,47.10
2019-02-06T05:36:32.946Z,44.80
2019-02-06T05:39:02.923Z,51.43
2019-02-06T05:41:33.944Z,51.77
2019-02-06T05:44:04.058Z,39.00
2019-02-06T05:46:36.066Z,45.57
2019-02-06T05:49:06.184Z,52.50
2019-02-06T05:51:36.184Z,49.73
2019-02-06T05:54:06.189Z,43.00
2019-02-06T05:56:48.432Z,43.43
2019-02-06T05:59:19.244Z,45.10
2019-02-06T06:01:49.438Z,43.10
2019-02-06T06:04:19.619Z,39.27
2019-02-06T06:06:50.771Z,40.57
2019-02-06T06:09:21.111Z,39.60
2019-02-06T06:11:50.988Z,37.83
2019-02-06T06:14:21.038Z,40.50
2019-02-06T06:16:53.090Z,39.03
2019-02-06T06:19:23.102Z,42.07
2019-02-06T06:21:53.211Z,40.97
2019-02-06T06:24:23.489Z,42.73
2019-02-06T06:26:54.647Z,41.50
2019-02-06T06:29:24.631Z,61.13
2019-02-06T06:31:54.645Z,55.80
2019-02-06T06:34:24.640Z,47.07
2019-02-06T06:36:56.990Z,39.17
2019-02-06T06:39:27.156Z,34.00
2019-02-06T06:41:57.067Z,40.50
2019-02-06T06:44:27.047Z,37.77
2019-02-06T06:46:58.076Z,31.73
2019-02-06T06:49:27.987Z,34.83
2019-02-06T06:51:58.269Z,37.57
2019-02-06T06:54:28.183Z,31.53
2019-02-06T06:56:59.283Z,33.87
2019-02-06T06:59:29.331Z,27.63
2019-02-06T07:01:59.198Z,36.57
2019-02-06T07:04:29.202Z,43.70
2019-02-06T07:07:00.364Z,39.43
2019-02-06T07:09:30.362Z,40.00
2019-02-06T07:12:00.527Z,39.60
2019-02-06T07:14:30.746Z,41.23
2019-02-06T07:17:02.915Z,49.80
2019-02-06T07:19:33.243Z,39.10
2019-02-06T07:22:03.159Z,33.83
2019-02-06T07:24:33.190Z,36.23
2019-02-06T07:27:05.205Z,37.30
2019-02-06T07:29:35.239Z,32.60
2019-02-06T07:32:05.738Z,32.73
2019-02-06T07:34:36.515Z,29.42
2019-02-06T07:37:08.071Z,31.07
2019-02-06T07:39:38.677Z,29.92
2019-02-06T07:42:09.136Z,31.20
2019-02-06T07:44:39.771Z,32.75
2019-02-06T07:47:11.690Z,29.67
2019-02-06T07:49:42.314Z,31.27
2019-02-06T07:52:12.767Z,29.50
2019-02-06T07:54:43.365Z,27.07
2019-02-06T07:57:18.529Z,31.20
2019-02-06T07:59:49.162Z,30.32
2019-02-06T08:02:19.605Z,30.75
2019-02-06T08:04:50.217Z,27.50
2019-02-06T08:07:23.844Z,28.10
2019-02-06T08:09:54.449Z,29.10
2019-02-06T08:12:24.948Z,28.77
2019-02-06T08:14:55.877Z,26.70
2019-02-06T08:17:30.321Z,24.60
2019-02-06T08:20:00.918Z,26.45
2019-02-06T08:22:31.518Z,29.07
2019-02-06T08:25:02.119Z,30.62
2019-02-06T08:27:34.086Z,27.32
2019-02-06T08:30:10.217Z,28.87
2019-02-06T08:32:40.802Z,23.05
2019-02-06T08:35:11.743Z,29.90
2019-02-06T08:37:46.242Z,30.40
2019-02-06T08:40:22.462Z,26.65
2019-02-06T08:42:52.960Z,28.60
2019-02-06T08:45:23.702Z,21.55
2019-02-06T08:48:00.099Z,20.20
2019-02-06T08:50:31.001Z,19.92
2019-02-06T08:53:01.471Z,20.15
2019-02-06T08:55:34.897Z,25.50
2019-02-06T08:58:05.374Z,28.45
2019-02-06T09:00:40.431Z,20.02
2019-02-06T09:03:11.348Z,34.60
2019-02-06T09:05:41.885Z,31.05
2019-02-06T09:08:12.464Z,33.98
2019-02-06T09:10:43.137Z,30.92
2019-02-06T09:13:13.633Z,36.83
2019-02-06T09:15:44.246Z,29.85
2019-02-06T09:18:15.625Z,35.05
2019-02-06T09:20:46.206Z,33.67
2019-02-06T09:23:16.706Z,42.50
2019-02-06T09:25:47.332Z,42.45
2019-02-06T09:28:17.787Z,46.02
2019-02-06T09:30:48.767Z,44.73
2019-02-06T09:33:19.270Z,44.55
2019-02-06T09:35:49.842Z,38.02
2019-02-06T09:38:20.317Z,39.85
2019-02-06T09:40:50.925Z,41.73
2019-02-06T09:43:21.416Z,41.30
2019-02-06T09:45:52.256Z,44.23
2019-02-06T09:48:22.758Z,42.08
2019-02-06T09:50:53.335Z,28.35
2019-02-06T09:53:23.808Z,47.98
2019-02-06T09:55:55.426Z,48.25
2019-02-06T09:58:26.415Z,47.38
2019-02-06T10:00:56.985Z,40.75
2019-02-06T10:06:18.921Z,44.95
2019-02-06T10:08:49.911Z,43.05
2019-02-06T10:11:20.502Z,47.73
2019-02-06T10:13:51.101Z,53.83
2019-02-06T10:16:27.682Z,69.30
2019-02-06T10:18:59.857Z,65.08
2019-02-06T10:21:30.583Z,56.58
2019-02-06T10:24:01.066Z,65.03
2019-02-06T10:26:34.384Z,52.78
2019-02-06T10:29:16.736Z,56.85
2019-02-06T10:31:47.353Z,50.43
2019-02-06T10:34:17.829Z,47.62
2019-02-06T10:36:52.733Z,53.38
2019-02-06T10:39:33.944Z,57.93
2019-02-06T10:41:55.439Z,58.90
2019-02-06T10:44:25.945Z,56.20
2019-02-06T10:46:57.657Z,60.75
2019-02-06T10:49:28.215Z,62.13
2019-02-06T10:51:58.767Z,53.42
2019-02-06T10:54:28.676Z,56.48
2019-02-06T10:57:00.353Z,57.10
2019-02-06T10:59:31.280Z,70.17
2019-02-06T11:02:01.308Z,59.87
2019-02-06T11:04:31.223Z,56.33
2019-02-06T11:07:02.310Z,59.40
2019-02-06T11:09:32.316Z,55.63
2019-02-06T11:12:03.040Z,58.53
2019-02-06T11:14:33.071Z,60.73
2019-02-06T11:17:05.396Z,61.37
2019-02-06T11:19:36.512Z,60.80
2019-02-06T11:22:06.651Z,65.20
2019-02-06T11:24:38.392Z,63.27
2019-02-06T11:27:09.924Z,64.27
2019-02-06T11:29:39.938Z,66.87
2019-02-06T11:32:10.075Z,66.73
2019-02-06T11:34:40.077Z,66.13
2019-02-06T11:37:10.123Z,69.77
2019-02-06T11:39:40.353Z,74.60
2019-02-06T11:42:10.360Z,72.03
2019-02-06T11:44:40.292Z,71.23
2019-02-06T11:47:15.111Z,77.87
2019-02-06T11:49:45.608Z,74.63
2019-02-06T11:52:15.616Z,74.27
2019-02-06T11:54:45.635Z,74.67
2019-02-06T11:57:16.749Z,73.63
2019-02-06T11:59:46.647Z,78.63
2019-02-06T12:02:17.864Z,76.00
2019-02-06T12:04:47.756Z,85.60
2019-02-06T12:07:19.276Z,83.13
2019-02-06T12:09:49.287Z,83.23
2019-02-06T12:12:19.297Z,79.60
2019-02-06T12:14:49.305Z,83.50
2019-02-06T12:17:20.543Z,76.50
2019-02-06T12:19:52.591Z,80.47
2019-02-06T12:22:23.587Z,80.57
2019-02-06T12:24:53.501Z,79.93
2019-02-06T12:27:24.596Z,72.83
2019-02-06T12:29:54.519Z,81.30
2019-02-06T12:32:24.641Z,72.17
2019-02-06T12:34:54.563Z,81.93
2019-02-06T12:37:24.694Z,77.10
2019-02-06T12:39:54.596Z,81.63
2019-02-06T12:42:24.607Z,75.37
2019-02-06T12:44:54.509Z,74.87
2019-02-06T12:47:26.881Z,79.20
2019-02-06T12:49:57.397Z,75.30
2019-02-06T12:52:27.629Z,74.23
2019-02-06T12:54:57.551Z,68.83
2019-02-06T12:57:36.417Z,77.37
2019-02-06T12:59:59.041Z,69.23
2019-02-06T13:02:29.107Z,82.63
2019-02-06T13:04:59.021Z,78.50
2019-02-06T13:07:29.428Z,77.23
2019-02-06T13:09:59.340Z,77.17
2019-02-06T13:12:29.312Z,72.60
2019-02-06T13:14:59.220Z,77.13
2019-02-06T13:17:30.361Z,83.80
2019-02-06T13:20:01.386Z,79.80
2019-02-06T13:22:31.779Z,79.70
2019-02-06T13:25:01.702Z,77.60
2019-02-06T13:27:31.816Z,74.73
2019-02-06T13:30:01.728Z,74.03
2019-02-06T13:32:33.462Z,77.77
2019-02-06T13:35:03.351Z,78.97
2019-02-06T13:37:33.381Z,73.60
2019-02-06T13:40:03.266Z,84.53
2019-02-06T13:42:33.298Z,79.43
2019-02-06T13:45:03.314Z,75.07
2019-02-06T13:47:34.468Z,63.63
2019-02-06T13:50:07.634Z,69.30
2019-02-06T13:52:38.861Z,85.00
2019-02-06T13:55:14.549Z,82.53
2019-02-06T13:57:46.861Z,74.90
2019-02-06T14:00:34.217Z,72.80
2019-02-06T14:03:06.567Z,70.60
2019-02-06T14:05:36.556Z,71.53
2019-02-06T14:08:09.354Z,62.30
2019-02-06T14:10:39.359Z,69.23
2019-02-06T14:13:09.391Z,102.17
2019-02-06T14:15:44.544Z,77.60
2019-02-06T14:18:14.600Z,70.83
2019-02-06T14:20:46.822Z,65.63
2019-02-06T14:23:32.784Z,64.97
2019-02-06T14:26:16.123Z,68.13
2019-02-06T14:29:04.186Z,59.90
2019-02-06T14:31:56.747Z,54.00
2019-02-06T14:34:47.948Z,60.57
2019-02-06T14:37:32.279Z,66.85
2019-02-06T14:40:11.214Z,57.70
2019-02-06T14:43:03.906Z,62.53
2019-02-06T14:45:46.041Z,59.93
2019-02-06T14:48:39.825Z,52.53
2019-02-06T14:51:39.071Z,60.93
2019-02-06T14:54:12.112Z,56.53
2019-02-06T14:56:49.274Z,59.73
2019-02-06T14:59:34.847Z,54.87
2019-02-06T15:02:39.878Z,56.37
2019-02-06T15:05:22.119Z,54.87
2019-02-06T15:08:16.296Z,56.57
2019-02-06T15:11:07.305Z,51.73
2019-02-06T15:14:00.263Z,55.93
2019-02-06T15:16:42.946Z,61.33
2019-02-06T15:19:33.868Z,61.23
2019-02-06T15:22:28.218Z,54.57
2019-02-06T15:25:18.750Z,53.87
2019-02-06T15:28:07.734Z,62.80
2019-02-06T15:30:40.840Z,63.50
2019-02-06T15:33:34.382Z,59.23
2019-02-06T15:36:08.581Z,62.13
2019-02-06T15:38:47.196Z,60.63
2019-02-06T15:42:08.852Z,64.47
2019-02-06T15:44:50.819Z,66.07
2019-02-06T15:47:32.792Z,68.43
2019-02-06T15:50:26.642Z,73.23
2019-02-06T15:53:03.460Z,74.53
2019-02-06T15:55:43.292Z,75.70
2019-02-06T15:58:39.072Z,65.30
2019-02-06T16:04:43.975Z,73.17
2019-02-06T16:07:33.185Z,79.53
2019-02-06T16:10:34.999Z,65.10
2019-02-06T16:13:25.967Z,70.33
2019-02-06T16:16:21.427Z,65.00
2019-02-06T16:19:06.780Z,87.40
2019-02-06T16:22:07.147Z,81.03
2019-02-06T16:24:57.088Z,70.07
2019-02-06T16:27:44.351Z,69.57
2019-02-06T16:30:29.208Z,67.87
2019-02-06T16:33:20.950Z,77.40
2019-02-06T16:36:19.181Z,67.17
2019-02-06T16:39:13.111Z,69.37
2019-02-06T16:41:53.407Z,74.53
2019-02-06T16:44:41.962Z,68.73
2019-02-06T16:47:19.029Z,68.97
2019-02-06T16:50:04.827Z,70.87
2019-02-06T16:53:08.798Z,73.07
2019-02-06T16:56:00.301Z,73.80
2019-02-06T16:58:45.114Z,78.50
2019-02-06T17:01:34.787Z,74.73
2019-02-06T17:04:29.118Z,79.27
2019-02-06T17:07:19.809Z,91.63
2019-02-06T17:09:53.053Z,79.70
2019-02-06T17:12:35.181Z,79.63
2019-02-06T17:15:22.390Z,76.27
2019-02-06T17:18:00.326Z,82.33
2019-02-06T17:20:34.773Z,78.43
2019-02-06T17:23:36.660Z,87.83
2019-02-06T17:26:41.891Z,72.20
2019-02-06T17:29:19.677Z,79.70
2019-02-06T17:32:13.335Z,77.50
2019-02-06T17:34:47.256Z,128.43
2019-02-06T17:37:37.048Z,158.20
2019-02-06T17:40:31.378Z,98.77
2019-02-06T17:43:13.319Z,96.30
2019-02-06T17:45:53.362Z,96.73
2019-02-06T17:48:49.665Z,84.57
2019-02-06T17:51:40.718Z,82.53
2019-02-06T17:54:22.791Z,85.90
2019-02-06T17:57:05.010Z,81.30
2019-02-06T17:59:34.985Z,81.20
2019-02-06T18:02:05.003Z,87.80
2019-02-06T18:04:35.021Z,86.80
2019-02-06T18:07:07.755Z,107.37
2019-02-06T18:09:37.757Z,108.63
2019-02-06T18:12:07.764Z,82.80
2019-02-06T18:14:37.756Z,88.23
2019-02-06T18:17:08.894Z,86.40
2019-02-06T18:19:38.961Z,96.00
2019-02-06T18:22:08.989Z,89.23
2019-02-06T18:24:38.920Z,105.90
2019-02-06T18:27:11.098Z,79.30
2019-02-06T18:29:40.999Z,95.57
2019-02-06T18:32:10.987Z,89.93
2019-02-06T18:34:41.283Z,82.90
2019-02-06T18:37:11.302Z,109.67
2019-02-06T18:39:41.208Z,97.70
2019-02-06T18:42:11.219Z,106.50
2019-02-06T18:44:41.141Z,164.77
2019-02-06T18:47:12.250Z,124.10
2019-02-06T18:49:42.148Z,104.30
2019-02-06T18:52:20.189Z,105.30
2019-02-06T18:54:43.795Z,174.13
2019-02-06T18:57:14.013Z,173.43
2019-02-06T18:59:45.146Z,154.33
2019-02-06T19:02:15.354Z,130.53
2019-02-06T19:04:45.356Z,113.77
2019-02-06T19:07:16.910Z,90.10
2019-02-06T19:09:47.236Z,95.83
2019-02-06T19:12:17.696Z,101.10
2019-02-06T19:14:48.012Z,105.53
2019-02-06T19:17:19.621Z,94.37
2019-02-06T19:19:49.944Z,90.53
2019-02-06T19:22:20.397Z,99.37
2019-02-06T19:24:51.894Z,94.10
2019-02-06T19:27:24.626Z,100.67
2019-02-06T19:29:54.948Z,94.60
2019-02-06T19:32:25.439Z,94.70
2019-02-06T19:34:55.788Z,97.50
2019-02-06T19:37:26.412Z,92.93
2019-02-06T19:39:56.980Z,103.10
2019-02-06T19:42:27.445Z,100.47
2019-02-06T19:44:59.241Z,106.10
2019-02-06T19:47:32.281Z,96.67
2019-02-06T19:50:05.523Z,98.60
2019-02-06T19:52:36.418Z,107.20
2019-02-06T19:55:09.778Z,101.57
2019-02-06T19:57:40.729Z,90.97
2019-02-06T20:00:31.409Z,91.57
2019-02-06T20:03:03.481Z,93.50
2019-02-06T20:05:34.066Z,96.90
2019-02-06T20:08:04.843Z,85.87
2019-02-06T20:10:47.510Z,84.57
2019-02-06T20:13:18.242Z,86.80
2019-02-06T20:15:49.002Z,83.70
2019-02-06T20:18:22.717Z,81.67
2019-02-06T20:20:53.325Z,139.90
2019-02-06T20:23:44.726Z,106.27
2019-02-06T20:26:37.993Z,92.13
2019-02-06T20:29:09.493Z,84.47
2019-02-06T20:31:41.879Z,137.60
2019-02-06T20:34:14.017Z,129.23
2019-02-06T20:36:45.553Z,123.77
2019-02-06T20:39:16.395Z,93.87
2019-02-06T20:41:47.330Z,91.03
2019-02-06T20:44:18.022Z,99.00
2019-02-06T20:46:49.690Z,85.10
2019-02-06T20:49:20.443Z,82.20
2019-02-06T20:51:51.384Z,91.70
2019-02-06T20:54:21.936Z,81.10
2019-02-06T20:56:52.294Z,79.37
2019-02-06T20:59:22.777Z,81.37
2019-02-06T21:01:52.952Z,85.90
2019-02-06T21:04:23.112Z,74.23
2019-02-06T21:06:54.677Z,87.57
2019-02-06T21:09:24.902Z,80.23
2019-02-06T21:11:54.844Z,81.30
2019-02-06T21:14:24.951Z,84.03
2019-02-06T21:16:55.963Z,90.20
2019-02-06T21:19:28.177Z,81.57
2019-02-06T21:21:57.590Z,91.00
2019-02-06T21:24:30.289Z,81.03
2019-02-06T21:27:02.154Z,94.17
2019-02-06T21:29:32.310Z,85.27
2019-02-06T21:32:02.205Z,90.50
2019-02-06T21:34:33.420Z,79.07
2019-02-06T21:37:03.511Z,74.33
2019-02-06T21:39:35.084Z,78.00
2019-02-06T21:42:05.167Z,70.73
2019-02-06T21:44:35.390Z,57.63
2019-02-06T21:47:06.717Z,63.03
2019-02-06T21:49:36.735Z,68.30
2019-02-06T21:52:06.630Z,68.20
2019-02-06T21:54:36.638Z,79.67
2019-02-06T21:57:06.633Z,68.73
2019-02-06T21:59:36.675Z,64.80
2019-02-06T22:02:06.986Z,62.53
2019-02-06T22:04:37.009Z,60.33
2019-02-06T22:07:08.004Z,63.30
2019-02-06T22:09:38.023Z,55.47
2019-02-06T22:12:07.917Z,56.87
2019-02-06T22:14:37.901Z,59.03
2019-02-06T22:17:08.967Z,57.73
2019-02-06T22:19:39.277Z,54.30
2019-02-06T22:22:09.637Z,48.47
2019-02-06T22:24:39.617Z,52.00
2019-02-06T22:27:10.535Z,45.57
2019-02-06T22:29:40.876Z,39.30
2019-02-06T22:32:10.792Z,46.63
2019-02-06T22:34:54.430Z,41.90
2019-02-06T22:37:24.419Z,42.17
2019-02-06T22:39:54.405Z,40.67
2019-02-06T22:42:24.304Z,40.67
2019-02-06T22:44:54.314Z,48.33
2019-02-06T22:47:25.315Z,45.73
2019-02-06T22:49:57.479Z,46.60
2019-02-06T22:52:26.710Z,49.60
2019-02-06T22:54:57.113Z,44.20
2019-02-06T22:57:28.055Z,41.90
2019-02-06T22:59:58.112Z,42.93
2019-02-06T23:02:27.995Z,41.93
2019-02-06T23:04:57.954Z,43.77
2019-02-06T23:07:28.984Z,39.37
2019-02-06T23:09:58.910Z,45.20
2019-02-06T23:12:29.872Z,42.27
2019-02-06T23:14:59.772Z,42.57
2019-02-06T23:17:31.844Z,43.27
2019-02-06T23:20:01.742Z,42.80
2019-02-06T23:22:33.565Z,48.53
2019-02-06T23:25:03.490Z,49.53
2019-02-06T23:27:36.529Z,45.93
2019-02-06T23:30:09.615Z,53.00
2019-02-06T23:32:39.606Z,46.80
2019-02-06T23:35:09.524Z,50.77
2019-02-06T23:37:39.513Z,46.33
2019-02-06T23:40:12.481Z,50.03
2019-02-06T23:42:42.473Z,56.00
2019-02-06T23:45:12.394Z,47.73
2019-02-06T23:47:43.848Z,47.87
2019-02-06T23:50:17.794Z,55.30
2019-02-06T23:52:47.800Z,50.17
2019-02-06T23:55:17.705Z,50.70
2019-02-06T23:57:48.731Z,49.13
